sensor_id;sensor_type;location;lat;lon;timestamp;pressure;altitude;pressure_sealevel;temperature;humidity
49529;BME280;35423;37.320;-121.762;2023-02-16T00:00:20;100644.15;;;35.83;4.03
49529;BME280;35423;37.320;-121.762;2023-02-16T00:02:45;100643.73;;;35.24;4.00
49529;BME280;35423;37.320;-121.762;2023-02-16T00:05:22;100641.57;;;35.55;4.09
49529;BME280;35423;37.320;-121.762;2023-02-16T00:07:55;100647.46;;;35.77;4.16
49529;BME280;35423;37.320;-121.762;2023-02-16T00:10:21;100645.70;;;35.25;4.26
49529;BME280;35423;37.320;-121.762;2023-02-16T00:12:47;100642.39;;;34.93;4.35
49529;BME280;35423;37.320;-121.762;2023-02-16T00:15:18;100644.51;;;34.70;4.26
49529;BME280;35423;37.320;-121.762;2023-02-16T00:17:46;100643.75;;;35.03;4.24
49529;BME280;35423;37.320;-121.762;2023-02-16T00:20:15;100642.58;;;34.64;4.28
49529;BME280;35423;37.320;-121.762;2023-02-16T00:22:47;100645.79;;;34.80;4.21
49529;BME280;35423;37.320;-121.762;2023-02-16T00:25:07;100649.20;;;34.63;4.33
49529;BME280;35423;37.320;-121.762;2023-02-16T00:27:34;100653.49;;;34.61;4.36
49529;BME280;35423;37.320;-121.762;2023-02-16T00:30:00;100653.66;;;34.63;4.17
49529;BME280;35423;37.320;-121.762;2023-02-16T00:32:29;100651.27;;;34.68;4.11
49529;BME280;35423;37.320;-121.762;2023-02-16T00:34:54;100651.13;;;34.51;3.99
49529;BME280;35423;37.320;-121.762;2023-02-16T00:37:20;100656.77;;;34.32;4.04
49529;BME280;35423;37.320;-121.762;2023-02-16T00:39:45;100659.33;;;34.15;4.30
49529;BME280;35423;37.320;-121.762;2023-02-16T00:42:19;100660.06;;;33.97;4.43
49529;BME280;35423;37.320;-121.762;2023-02-16T00:44:47;100664.03;;;33.88;4.52
49529;BME280;35423;37.320;-121.762;2023-02-16T00:47:18;100665.11;;;33.71;4.71
49529;BME280;35423;37.320;-121.762;2023-02-16T00:49:38;100667.80;;;33.49;4.77
49529;BME280;35423;37.320;-121.762;2023-02-16T00:54:29;100667.32;;;32.97;4.89
49529;BME280;35423;37.320;-121.762;2023-02-16T00:56:57;100666.57;;;32.86;4.93
49529;BME280;35423;37.320;-121.762;2023-02-16T00:59:24;100672.22;;;33.10;5.03
49529;BME280;35423;37.320;-121.762;2023-02-16T01:01:49;100674.82;;;32.62;5.20
49529;BME280;35423;37.320;-121.762;2023-02-16T01:04:20;100679.39;;;32.12;5.36
49529;BME280;35423;37.320;-121.762;2023-02-16T01:06:45;100682.25;;;32.09;5.49
49529;BME280;35423;37.320;-121.762;2023-02-16T01:09:14;100686.77;;;31.61;5.64
49529;BME280;35423;37.320;-121.762;2023-02-16T01:11:37;100691.21;;;31.26;5.84
49529;BME280;35423;37.320;-121.762;2023-02-16T01:14:12;100696.08;;;30.62;6.09
49529;BME280;35423;37.320;-121.762;2023-02-16T01:16:35;100698.76;;;30.50;6.27
49529;BME280;35423;37.320;-121.762;2023-02-16T01:18:55;100704.83;;;29.87;6.47
49529;BME280;35423;37.320;-121.762;2023-02-16T01:21:21;100708.65;;;29.34;6.61
49529;BME280;35423;37.320;-121.762;2023-02-16T01:23:48;100709.93;;;29.11;6.79
49529;BME280;35423;37.320;-121.762;2023-02-16T01:26:19;100713.68;;;28.85;6.90
49529;BME280;35423;37.320;-121.762;2023-02-16T01:28:49;100718.20;;;28.34;7.08
49529;BME280;35423;37.320;-121.762;2023-02-16T01:31:10;100718.76;;;28.27;7.32
49529;BME280;35423;37.320;-121.762;2023-02-16T01:33:41;100721.57;;;27.86;7.51
49529;BME280;35423;37.320;-121.762;2023-02-16T01:36:02;100724.06;;;27.57;7.64
49529;BME280;35423;37.320;-121.762;2023-02-16T01:38:27;100724.82;;;27.27;7.81
49529;BME280;35423;37.320;-121.762;2023-02-16T01:41:04;100724.19;;;27.06;7.84
49529;BME280;35423;37.320;-121.762;2023-02-16T01:43:27;100725.54;;;26.80;7.98
49529;BME280;35423;37.320;-121.762;2023-02-16T01:45:56;100727.60;;;26.84;8.16
49529;BME280;35423;37.320;-121.762;2023-02-16T01:48:28;100727.86;;;26.63;8.33
49529;BME280;35423;37.320;-121.762;2023-02-16T01:50:48;100728.78;;;26.23;8.38
49529;BME280;35423;37.320;-121.762;2023-02-16T01:53:18;100730.57;;;26.44;8.68
49529;BME280;35423;37.320;-121.762;2023-02-16T01:55:42;100734.81;;;26.07;9.00
49529;BME280;35423;37.320;-121.762;2023-02-16T01:58:07;100735.25;;;25.81;9.22
49529;BME280;35423;37.320;-121.762;2023-02-16T02:02:58;100738.53;;;25.35;9.52
49529;BME280;35423;37.320;-121.762;2023-02-16T02:05:33;100738.72;;;25.20;9.80
49529;BME280;35423;37.320;-121.762;2023-02-16T02:08:06;100744.59;;;24.57;10.22
49529;BME280;35423;37.320;-121.762;2023-02-16T02:10:45;100748.91;;;24.63;10.41
49529;BME280;35423;37.320;-121.762;2023-02-16T02:13:10;100754.02;;;24.32;10.62
49529;BME280;35423;37.320;-121.762;2023-02-16T02:15:34;100755.01;;;24.03;10.68
49529;BME280;35423;37.320;-121.762;2023-02-16T02:18:16;100758.34;;;24.11;10.83
49529;BME280;35423;37.320;-121.762;2023-02-16T02:20:51;100760.67;;;23.53;10.99
49529;BME280;35423;37.320;-121.762;2023-02-16T02:23:21;100763.45;;;23.49;11.07
49529;BME280;35423;37.320;-121.762;2023-02-16T02:28:27;100765.50;;;23.35;11.24
49529;BME280;35423;37.320;-121.762;2023-02-16T02:30:55;100762.92;;;23.18;11.39
49529;BME280;35423;37.320;-121.762;2023-02-16T02:33:31;100762.57;;;22.98;11.47
49529;BME280;35423;37.320;-121.762;2023-02-16T02:35:50;100767.39;;;22.80;11.66
49529;BME280;35423;37.320;-121.762;2023-02-16T02:38:15;100769.40;;;22.55;11.71
49529;BME280;35423;37.320;-121.762;2023-02-16T02:40:45;100770.97;;;22.53;11.84
49529;BME280;35423;37.320;-121.762;2023-02-16T02:43:08;100774.04;;;22.02;11.97
49529;BME280;35423;37.320;-121.762;2023-02-16T02:45:35;100775.20;;;22.22;12.13
49529;BME280;35423;37.320;-121.762;2023-02-16T02:48:02;100774.29;;;21.93;12.17
49529;BME280;35423;37.320;-121.762;2023-02-16T02:50:37;100774.02;;;21.76;12.12
49529;BME280;35423;37.320;-121.762;2023-02-16T02:53:04;100774.93;;;21.69;12.19
49529;BME280;35423;37.320;-121.762;2023-02-16T02:55:30;100773.52;;;21.78;12.18
49529;BME280;35423;37.320;-121.762;2023-02-16T02:57:57;100772.15;;;21.46;12.17
49529;BME280;35423;37.320;-121.762;2023-02-16T03:00:26;100769.99;;;21.32;12.26
49529;BME280;35423;37.320;-121.762;2023-02-16T03:03:01;100771.30;;;21.34;12.25
49529;BME280;35423;37.320;-121.762;2023-02-16T03:05:16;100768.09;;;21.18;12.37
49529;BME280;35423;37.320;-121.762;2023-02-16T03:07:43;100770.53;;;20.79;12.43
49529;BME280;35423;37.320;-121.762;2023-02-16T03:10:08;100768.21;;;20.97;12.49
49529;BME280;35423;37.320;-121.762;2023-02-16T03:12:33;100766.80;;;21.24;12.49
49529;BME280;35423;37.320;-121.762;2023-02-16T03:15:02;100766.59;;;20.91;12.51
49529;BME280;35423;37.320;-121.762;2023-02-16T03:17:34;100769.31;;;21.10;12.54
49529;BME280;35423;37.320;-121.762;2023-02-16T03:19:56;100772.16;;;20.91;12.64
49529;BME280;35423;37.320;-121.762;2023-02-16T03:22:20;100769.22;;;20.88;12.74
49529;BME280;35423;37.320;-121.762;2023-02-16T03:24:47;100768.20;;;20.72;12.97
49529;BME280;35423;37.320;-121.762;2023-02-16T03:27:14;100768.71;;;20.88;13.01
49529;BME280;35423;37.320;-121.762;2023-02-16T03:29:49;100774.03;;;20.61;13.03
49529;BME280;35423;37.320;-121.762;2023-02-16T03:32:10;100781.21;;;20.57;12.99
49529;BME280;35423;37.320;-121.762;2023-02-16T03:34:37;100782.37;;;20.58;12.96
49529;BME280;35423;37.320;-121.762;2023-02-16T03:37:16;100778.24;;;20.47;12.98
49529;BME280;35423;37.320;-121.762;2023-02-16T03:39:50;100780.08;;;20.79;13.04
49529;BME280;35423;37.320;-121.762;2023-02-16T03:42:23;100785.70;;;20.66;13.07
49529;BME280;35423;37.320;-121.762;2023-02-16T03:44:50;100787.32;;;20.39;12.96
49529;BME280;35423;37.320;-121.762;2023-02-16T03:47:15;100788.53;;;20.51;12.96
49529;BME280;35423;37.320;-121.762;2023-02-16T03:49:42;100786.31;;;19.99;13.09
49529;BME280;35423;37.320;-121.762;2023-02-16T03:52:07;100788.60;;;20.31;13.19
49529;BME280;35423;37.320;-121.762;2023-02-16T03:54:34;100791.93;;;19.83;13.15
49529;BME280;35423;37.320;-121.762;2023-02-16T03:57:00;100795.06;;;19.96;13.38
49529;BME280;35423;37.320;-121.762;2023-02-16T03:59:26;100797.29;;;19.93;13.32
49529;BME280;35423;37.320;-121.762;2023-02-16T04:01:53;100801.93;;;19.82;13.48
49529;BME280;35423;37.320;-121.762;2023-02-16T04:04:18;100801.36;;;19.75;13.37
49529;BME280;35423;37.320;-121.762;2023-02-16T04:06:51;100801.74;;;19.63;13.46
49529;BME280;35423;37.320;-121.762;2023-02-16T04:09:16;100797.25;;;19.48;13.33
49529;BME280;35423;37.320;-121.762;2023-02-16T04:11:43;100799.04;;;19.65;13.18
49529;BME280;35423;37.320;-121.762;2023-02-16T04:14:10;100801.39;;;19.83;13.00
49529;BME280;35423;37.320;-121.762;2023-02-16T04:16:46;100802.60;;;19.72;13.12
49529;BME280;35423;37.320;-121.762;2023-02-16T04:19:11;100807.15;;;19.63;13.24
49529;BME280;35423;37.320;-121.762;2023-02-16T04:21:37;100808.47;;;19.51;13.29
49529;BME280;35423;37.320;-121.762;2023-02-16T04:24:02;100812.28;;;19.19;13.37
49529;BME280;35423;37.320;-121.762;2023-02-16T04:26:30;100814.86;;;19.33;13.36
49529;BME280;35423;37.320;-121.762;2023-02-16T04:29:01;100818.62;;;19.17;13.41
49529;BME280;35423;37.320;-121.762;2023-02-16T04:31:26;100818.97;;;18.79;13.62
49529;BME280;35423;37.320;-121.762;2023-02-16T04:33:52;100821.08;;;18.77;13.96
49529;BME280;35423;37.320;-121.762;2023-02-16T04:36:20;100826.72;;;18.77;13.96
49529;BME280;35423;37.320;-121.762;2023-02-16T04:38:49;100827.18;;;18.45;13.97
49529;BME280;35423;37.320;-121.762;2023-02-16T04:41:26;100829.47;;;18.94;13.99
49529;BME280;35423;37.320;-121.762;2023-02-16T04:44:00;100830.02;;;18.55;14.00
49529;BME280;35423;37.320;-121.762;2023-02-16T04:46:26;100828.88;;;18.19;14.28
49529;BME280;35423;37.320;-121.762;2023-02-16T04:48:52;100827.53;;;18.06;14.36
49529;BME280;35423;37.320;-121.762;2023-02-16T04:51:19;100829.32;;;18.24;14.43
49529;BME280;35423;37.320;-121.762;2023-02-16T04:53:43;100836.71;;;18.40;14.54
49529;BME280;35423;37.320;-121.762;2023-02-16T04:56:09;100838.20;;;18.11;14.67
49529;BME280;35423;37.320;-121.762;2023-02-16T04:58:39;100841.63;;;18.04;14.67
49529;BME280;35423;37.320;-121.762;2023-02-16T05:01:02;100839.13;;;18.15;14.69
49529;BME280;35423;37.320;-121.762;2023-02-16T05:03:32;100837.58;;;17.98;14.70
49529;BME280;35423;37.320;-121.762;2023-02-16T05:05:58;100836.79;;;17.72;14.78
49529;BME280;35423;37.320;-121.762;2023-02-16T05:08:30;100838.91;;;17.68;14.71
49529;BME280;35423;37.320;-121.762;2023-02-16T05:10:58;100840.02;;;17.81;14.87
49529;BME280;35423;37.320;-121.762;2023-02-16T05:13:31;100844.14;;;17.52;14.98
49529;BME280;35423;37.320;-121.762;2023-02-16T05:15:56;100845.45;;;17.29;15.12
49529;BME280;35423;37.320;-121.762;2023-02-16T05:18:22;100847.42;;;17.46;15.18
49529;BME280;35423;37.320;-121.762;2023-02-16T05:20:49;100854.28;;;17.15;15.24
49529;BME280;35423;37.320;-121.762;2023-02-16T05:23:17;100859.25;;;17.12;15.24
49529;BME280;35423;37.320;-121.762;2023-02-16T05:25:44;100862.17;;;17.30;15.21
49529;BME280;35423;37.320;-121.762;2023-02-16T05:28:10;100861.79;;;17.49;15.20
49529;BME280;35423;37.320;-121.762;2023-02-16T05:30:38;100858.64;;;17.39;15.41
49529;BME280;35423;37.320;-121.762;2023-02-16T05:33:03;100862.65;;;17.09;15.38
49529;BME280;35423;37.320;-121.762;2023-02-16T05:35:28;100869.15;;;16.99;15.51
49529;BME280;35423;37.320;-121.762;2023-02-16T05:37:59;100871.04;;;17.19;15.51
49529;BME280;35423;37.320;-121.762;2023-02-16T05:40:22;100868.10;;;17.09;15.43
49529;BME280;35423;37.320;-121.762;2023-02-16T05:42:58;100871.21;;;16.73;15.47
49529;BME280;35423;37.320;-121.762;2023-02-16T05:45:18;100875.54;;;16.63;15.57
49529;BME280;35423;37.320;-121.762;2023-02-16T05:47:44;100881.12;;;16.82;15.54
49529;BME280;35423;37.320;-121.762;2023-02-16T05:50:10;100881.46;;;16.73;15.58
49529;BME280;35423;37.320;-121.762;2023-02-16T05:52:35;100878.73;;;16.64;15.65
49529;BME280;35423;37.320;-121.762;2023-02-16T05:55:01;100881.96;;;16.57;15.76
49529;BME280;35423;37.320;-121.762;2023-02-16T05:57:27;100885.25;;;16.52;15.79
49529;BME280;35423;37.320;-121.762;2023-02-16T06:00:01;100887.94;;;16.45;15.92
49529;BME280;35423;37.320;-121.762;2023-02-16T06:02:29;100892.56;;;16.31;15.98
49529;BME280;35423;37.320;-121.762;2023-02-16T06:04:56;100897.62;;;16.27;15.99
49529;BME280;35423;37.320;-121.762;2023-02-16T06:07:23;100899.05;;;16.18;16.00
49529;BME280;35423;37.320;-121.762;2023-02-16T06:09:52;100901.68;;;16.60;15.91
49529;BME280;35423;37.320;-121.762;2023-02-16T06:12:17;100904.62;;;16.36;15.93
49529;BME280;35423;37.320;-121.762;2023-02-16T06:14:45;100902.72;;;16.28;15.98
49529;BME280;35423;37.320;-121.762;2023-02-16T06:17:13;100905.04;;;15.93;16.10
49529;BME280;35423;37.320;-121.762;2023-02-16T06:19:38;100907.37;;;16.02;16.19
49529;BME280;35423;37.320;-121.762;2023-02-16T06:22:06;100909.36;;;16.25;16.22
49529;BME280;35423;37.320;-121.762;2023-02-16T06:24:36;100908.03;;;16.04;16.24
49529;BME280;35423;37.320;-121.762;2023-02-16T06:27:05;100906.66;;;16.01;16.16
49529;BME280;35423;37.320;-121.762;2023-02-16T06:29:41;100904.38;;;16.15;16.30
49529;BME280;35423;37.320;-121.762;2023-02-16T06:32:08;100903.16;;;15.72;16.76
49529;BME280;35423;37.320;-121.762;2023-02-16T06:34:37;100902.01;;;15.45;16.92
49529;BME280;35423;37.320;-121.762;2023-02-16T06:37:02;100901.15;;;15.46;17.08
49529;BME280;35423;37.320;-121.762;2023-02-16T06:39:27;100903.26;;;15.30;17.31
49529;BME280;35423;37.320;-121.762;2023-02-16T06:42:03;100899.31;;;15.18;17.30
49529;BME280;35423;37.320;-121.762;2023-02-16T06:44:38;100896.64;;;15.38;17.15
49529;BME280;35423;37.320;-121.762;2023-02-16T06:47:08;100893.71;;;15.09;17.01
49529;BME280;35423;37.320;-121.762;2023-02-16T06:49:42;100889.55;;;15.03;16.90
49529;BME280;35423;37.320;-121.762;2023-02-16T06:52:19;100885.49;;;15.29;16.80
49529;BME280;35423;37.320;-121.762;2023-02-16T06:54:47;100880.99;;;15.42;16.82
49529;BME280;35423;37.320;-121.762;2023-02-16T06:57:12;100878.13;;;14.86;16.88
49529;BME280;35423;37.320;-121.762;2023-02-16T06:59:42;100872.06;;;15.35;16.97
49529;BME280;35423;37.320;-121.762;2023-02-16T07:02:09;100871.34;;;15.32;17.02
49529;BME280;35423;37.320;-121.762;2023-02-16T07:04:36;100870.00;;;15.05;17.05
49529;BME280;35423;37.320;-121.762;2023-02-16T07:07:01;100869.02;;;14.71;17.06
49529;BME280;35423;37.320;-121.762;2023-02-16T07:09:28;100869.88;;;15.02;17.09
49529;BME280;35423;37.320;-121.762;2023-02-16T07:11:54;100866.39;;;15.12;17.13
49529;BME280;35423;37.320;-121.762;2023-02-16T07:14:21;100868.41;;;14.82;17.16
49529;BME280;35423;37.320;-121.762;2023-02-16T07:16:49;100868.96;;;15.00;17.23
49529;BME280;35423;37.320;-121.762;2023-02-16T07:19:17;100866.88;;;14.69;17.27
49529;BME280;35423;37.320;-121.762;2023-02-16T07:21:46;100865.79;;;14.79;17.33
49529;BME280;35423;37.320;-121.762;2023-02-16T07:24:20;100866.69;;;14.46;17.34
49529;BME280;35423;37.320;-121.762;2023-02-16T07:26:47;100867.49;;;14.60;17.39
49529;BME280;35423;37.320;-121.762;2023-02-16T07:29:18;100870.00;;;14.36;17.31
49529;BME280;35423;37.320;-121.762;2023-02-16T07:31:43;100870.33;;;14.62;17.23
49529;BME280;35423;37.320;-121.762;2023-02-16T07:34:10;100872.95;;;14.74;17.56
49529;BME280;35423;37.320;-121.762;2023-02-16T07:36:35;100876.31;;;14.39;17.55
49529;BME280;35423;37.320;-121.762;2023-02-16T07:39:09;100874.53;;;14.26;17.62
49529;BME280;35423;37.320;-121.762;2023-02-16T07:41:37;100875.10;;;14.17;17.60
49529;BME280;35423;37.320;-121.762;2023-02-16T07:44:05;100875.11;;;14.09;17.58
49529;BME280;35423;37.320;-121.762;2023-02-16T07:46:36;100877.36;;;14.36;17.60
49529;BME280;35423;37.320;-121.762;2023-02-16T07:49:07;100873.87;;;13.94;17.72
49529;BME280;35423;37.320;-121.762;2023-02-16T07:51:32;100874.14;;;13.90;17.62
49529;BME280;35423;37.320;-121.762;2023-02-16T07:53:59;100871.91;;;13.87;17.65
49529;BME280;35423;37.320;-121.762;2023-02-16T07:56:25;100871.99;;;13.75;17.91
49529;BME280;35423;37.320;-121.762;2023-02-16T07:58:51;100873.65;;;13.93;17.98
49529;BME280;35423;37.320;-121.762;2023-02-16T08:01:17;100873.38;;;13.65;17.99
49529;BME280;35423;37.320;-121.762;2023-02-16T08:03:44;100876.69;;;13.65;18.07
49529;BME280;35423;37.320;-121.762;2023-02-16T08:06:11;100879.85;;;14.12;18.07
49529;BME280;35423;37.320;-121.762;2023-02-16T08:08:42;100876.02;;;14.06;18.20
49529;BME280;35423;37.320;-121.762;2023-02-16T08:11:10;100871.97;;;13.50;18.30
49529;BME280;35423;37.320;-121.762;2023-02-16T08:13:38;100868.25;;;13.40;18.48
49529;BME280;35423;37.320;-121.762;2023-02-16T08:16:26;100866.01;;;13.83;18.47
49529;BME280;35423;37.320;-121.762;2023-02-16T08:18:51;100866.46;;;13.57;18.62
49529;BME280;35423;37.320;-121.762;2023-02-16T08:21:20;100862.92;;;13.76;18.59
49529;BME280;35423;37.320;-121.762;2023-02-16T08:23:53;100860.01;;;13.95;18.70
49529;BME280;35423;37.320;-121.762;2023-02-16T08:26:25;100859.52;;;13.72;18.62
49529;BME280;35423;37.320;-121.762;2023-02-16T08:28:49;100859.54;;;13.63;18.70
49529;BME280;35423;37.320;-121.762;2023-02-16T08:31:23;100859.31;;;13.58;18.77
49529;BME280;35423;37.320;-121.762;2023-02-16T08:33:58;100858.91;;;13.53;18.77
49529;BME280;35423;37.320;-121.762;2023-02-16T08:36:30;100858.45;;;13.51;18.74
49529;BME280;35423;37.320;-121.762;2023-02-16T08:38:59;100854.76;;;13.46;18.81
49529;BME280;35423;37.320;-121.762;2023-02-16T08:41:20;100852.94;;;13.43;18.88
49529;BME280;35423;37.320;-121.762;2023-02-16T08:43:45;100850.60;;;13.33;18.95
49529;BME280;35423;37.320;-121.762;2023-02-16T08:46:18;100846.00;;;13.30;18.98
49529;BME280;35423;37.320;-121.762;2023-02-16T08:48:50;100843.63;;;13.24;19.05
49529;BME280;35423;37.320;-121.762;2023-02-16T08:51:20;100844.65;;;13.15;19.20
49529;BME280;35423;37.320;-121.762;2023-02-16T08:53:52;100844.94;;;13.30;19.26
49529;BME280;35423;37.320;-121.762;2023-02-16T08:56:24;100844.75;;;13.01;19.33
49529;BME280;35423;37.320;-121.762;2023-02-16T08:58:50;100848.13;;;12.97;19.37
49529;BME280;35423;37.320;-121.762;2023-02-16T09:01:16;100845.51;;;12.93;19.35
49529;BME280;35423;37.320;-121.762;2023-02-16T09:03:46;100843.85;;;13.08;19.39
49529;BME280;35423;37.320;-121.762;2023-02-16T09:06:13;100844.43;;;12.99;19.47
49529;BME280;35423;37.320;-121.762;2023-02-16T09:08:39;100848.15;;;12.94;19.34
49529;BME280;35423;37.320;-121.762;2023-02-16T09:11:15;100853.28;;;13.13;19.50
49529;BME280;35423;37.320;-121.762;2023-02-16T09:13:43;100851.71;;;12.68;19.42
49529;BME280;35423;37.320;-121.762;2023-02-16T09:16:09;100855.80;;;13.08;19.60
49529;BME280;35423;37.320;-121.762;2023-02-16T09:18:35;100858.42;;;12.71;19.84
49529;BME280;35423;37.320;-121.762;2023-02-16T09:21:04;100857.28;;;12.87;19.95
49529;BME280;35423;37.320;-121.762;2023-02-16T09:23:27;100854.45;;;12.45;20.00
49529;BME280;35423;37.320;-121.762;2023-02-16T09:25:53;100854.93;;;12.62;19.96
49529;BME280;35423;37.320;-121.762;2023-02-16T09:28:21;100858.40;;;12.59;19.92
49529;BME280;35423;37.320;-121.762;2023-02-16T09:30:50;100864.69;;;12.54;19.98
49529;BME280;35423;37.320;-121.762;2023-02-16T09:33:16;100868.43;;;12.54;19.92
49529;BME280;35423;37.320;-121.762;2023-02-16T09:35:42;100871.89;;;12.13;20.11
49529;BME280;35423;37.320;-121.762;2023-02-16T09:38:08;100869.10;;;12.24;20.41
49529;BME280;35423;37.320;-121.762;2023-02-16T09:40:37;100874.38;;;12.08;20.59
49529;BME280;35423;37.320;-121.762;2023-02-16T09:43:07;100871.54;;;11.95;20.67
49529;BME280;35423;37.320;-121.762;2023-02-16T09:45:33;100869.58;;;11.85;20.72
49529;BME280;35423;37.320;-121.762;2023-02-16T09:47:57;100865.93;;;11.54;20.71
49529;BME280;35423;37.320;-121.762;2023-02-16T09:50:25;100865.06;;;11.78;20.64
49529;BME280;35423;37.320;-121.762;2023-02-16T09:52:54;100865.64;;;11.78;20.59
49529;BME280;35423;37.320;-121.762;2023-02-16T09:55:21;100864.47;;;11.96;20.65
49529;BME280;35423;37.320;-121.762;2023-02-16T09:57:59;100861.34;;;11.96;20.58
49529;BME280;35423;37.320;-121.762;2023-02-16T10:00:23;100863.20;;;11.69;20.64
49529;BME280;35423;37.320;-121.762;2023-02-16T10:02:46;100858.34;;;11.68;20.59
49529;BME280;35423;37.320;-121.762;2023-02-16T10:05:14;100856.92;;;11.95;20.48
49529;BME280;35423;37.320;-121.762;2023-02-16T10:07:39;100856.51;;;11.72;20.53
49529;BME280;35423;37.320;-121.762;2023-02-16T10:10:01;100854.95;;;11.92;20.56
49529;BME280;35423;37.320;-121.762;2023-02-16T10:12:28;100853.48;;;12.10;20.62
49529;BME280;35423;37.320;-121.762;2023-02-16T10:14:54;100852.90;;;11.60;20.58
49529;BME280;35423;37.320;-121.762;2023-02-16T10:17:27;100854.58;;;11.67;20.84
49529;BME280;35423;37.320;-121.762;2023-02-16T10:19:55;100850.31;;;11.90;20.72
49529;BME280;35423;37.320;-121.762;2023-02-16T10:22:26;100854.46;;;11.56;20.72
49529;BME280;35423;37.320;-121.762;2023-02-16T10:24:56;100855.39;;;11.47;20.81
49529;BME280;35423;37.320;-121.762;2023-02-16T10:27:16;100851.32;;;11.44;20.85
49529;BME280;35423;37.320;-121.762;2023-02-16T10:29:41;100845.10;;;11.69;20.83
49529;BME280;35423;37.320;-121.762;2023-02-16T10:32:14;100840.91;;;11.62;20.92
49529;BME280;35423;37.320;-121.762;2023-02-16T10:34:45;100842.11;;;11.37;20.87
49529;BME280;35423;37.320;-121.762;2023-02-16T10:37:09;100842.70;;;11.58;20.95
49529;BME280;35423;37.320;-121.762;2023-02-16T10:39:29;100842.81;;;11.48;21.10
49529;BME280;35423;37.320;-121.762;2023-02-16T10:42:05;100837.80;;;11.43;21.09
49529;BME280;35423;37.320;-121.762;2023-02-16T10:44:36;100833.42;;;11.41;21.09
49529;BME280;35423;37.320;-121.762;2023-02-16T10:47:03;100833.05;;;11.36;21.09
49529;BME280;35423;37.320;-121.762;2023-02-16T10:49:26;100829.05;;;11.37;20.89
49529;BME280;35423;37.320;-121.762;2023-02-16T10:52:31;100826.42;;;11.36;20.66
49529;BME280;35423;37.320;-121.762;2023-02-16T10:54:53;100823.68;;;11.29;20.46
49529;BME280;35423;37.320;-121.762;2023-02-16T10:57:25;100819.67;;;11.32;20.34
49529;BME280;35423;37.320;-121.762;2023-02-16T10:59:46;100815.80;;;11.23;20.32
49529;BME280;35423;37.320;-121.762;2023-02-16T11:02:18;100806.10;;;11.42;20.31
49529;BME280;35423;37.320;-121.762;2023-02-16T11:04:40;100802.68;;;11.39;20.28
49529;BME280;35423;37.320;-121.762;2023-02-16T11:07:16;100799.42;;;10.91;20.18
49529;BME280;35423;37.320;-121.762;2023-02-16T11:09:40;100795.49;;;11.20;20.13
49529;BME280;35423;37.320;-121.762;2023-02-16T11:12:14;100796.02;;;11.24;20.08
49529;BME280;35423;37.320;-121.762;2023-02-16T11:14:32;100793.39;;;11.24;20.07
49529;BME280;35423;37.320;-121.762;2023-02-16T11:17:06;100790.53;;;11.20;20.15
49529;BME280;35423;37.320;-121.762;2023-02-16T11:19:31;100789.77;;;10.94;20.18
49529;BME280;35423;37.320;-121.762;2023-02-16T11:21:54;100786.77;;;11.18;20.23
49529;BME280;35423;37.320;-121.762;2023-02-16T11:24:23;100786.98;;;11.14;20.17
49529;BME280;35423;37.320;-121.762;2023-02-16T11:26:44;100783.79;;;11.57;20.14
49529;BME280;35423;37.320;-121.762;2023-02-16T11:29:17;100780.13;;;11.18;20.05
49529;BME280;35423;37.320;-121.762;2023-02-16T11:31:37;100775.35;;;11.20;19.99
49529;BME280;35423;37.320;-121.762;2023-02-16T11:34:03;100769.07;;;10.79;19.90
49529;BME280;35423;37.320;-121.762;2023-02-16T11:36:36;100763.76;;;11.40;19.83
49529;BME280;35423;37.320;-121.762;2023-02-16T11:38:59;100756.33;;;11.21;19.67
49529;BME280;35423;37.320;-121.762;2023-02-16T11:41:23;100752.90;;;11.31;19.61
49529;BME280;35423;37.320;-121.762;2023-02-16T11:43:48;100748.95;;;11.66;19.54
49529;BME280;35423;37.320;-121.762;2023-02-16T11:46:16;100748.28;;;11.89;19.51
49529;BME280;35423;37.320;-121.762;2023-02-16T11:48:39;100754.59;;;11.37;19.64
49529;BME280;35423;37.320;-121.762;2023-02-16T11:51:09;100758.98;;;11.57;19.78
49529;BME280;35423;37.320;-121.762;2023-02-16T11:53:35;100767.57;;;11.50;19.89
49529;BME280;35423;37.320;-121.762;2023-02-16T11:58:27;100780.04;;;11.22;20.44
49529;BME280;35423;37.320;-121.762;2023-02-16T12:01:01;100785.17;;;11.19;20.40
49529;BME280;35423;37.320;-121.762;2023-02-16T12:03:27;100792.45;;;11.42;20.27
49529;BME280;35423;37.320;-121.762;2023-02-16T12:05:55;100798.03;;;11.39;20.36
49529;BME280;35423;37.320;-121.762;2023-02-16T12:08:19;100802.55;;;11.36;20.33
49529;BME280;35423;37.320;-121.762;2023-02-16T12:10:48;100807.35;;;11.32;20.36
49529;BME280;35423;37.320;-121.762;2023-02-16T12:13:12;100806.51;;;11.21;20.56
49529;BME280;35423;37.320;-121.762;2023-02-16T12:15:44;100810.85;;;11.15;20.58
49529;BME280;35423;37.320;-121.762;2023-02-16T12:18:17;100805.91;;;11.12;20.59
49529;BME280;35423;37.320;-121.762;2023-02-16T12:20:40;100800.08;;;11.25;20.63
49529;BME280;35423;37.320;-121.762;2023-02-16T12:23:03;100795.60;;;10.97;20.84
49529;BME280;35423;37.320;-121.762;2023-02-16T12:25:28;100794.40;;;10.99;20.79
49529;BME280;35423;37.320;-121.762;2023-02-16T12:27:54;100790.49;;;11.26;20.80
49529;BME280;35423;37.320;-121.762;2023-02-16T12:30:25;100790.00;;;11.24;20.86
49529;BME280;35423;37.320;-121.762;2023-02-16T12:32:52;100785.29;;;11.01;20.91
49529;BME280;35423;37.320;-121.762;2023-02-16T12:35:22;100780.57;;;10.95;21.05